Sumisemaru No.5 — JE3162 — position and weather

sailwx.info

Track history (hours):
 
Tides and Currents Weather Stations Pressure Air Temp Water Temp Dewpoint Dewpoint Depression Visibility Wind Speed Wind Dir Waves Ship Positions

Sumisemaru No.5

Last reported at 2017-Mar-29 17:34 UTC. Time now 2017-Apr-24 09:56 UTC.
Position N 35°13' E 139°46'.
Warning: this ship's position is 25 days out of date.

Length 96 m; draft 5.5 m.

Type: Cargo ship. MMSI: 431700423.

Date/timePositionNaut miles runAvg speedWind from/ knotsBaromVisibWave heightAir tempDewpointWater temp
2017-Mar-29 17:34N 35°13' E 139°46'1312.6
2017-Mar-29 16:34N 35°25' E 139°42'4 3.5
2017-Mar-29 15:31N 35°29' E 139°40'0 0.0
2017-Mar-29 14:31N 35°29' E 139°40'0 0.0
2017-Mar-29 13:31N 35°29' E 139°40'0 0.0
2017-Mar-29 12:31N 35°29' E 139°40'0 0.0
2017-Mar-29 11:31N 35°29' E 139°40'0 0.0
2017-Mar-29 10:31N 35°29' E 139°40'0 0.0
2017-Mar-29 09:28N 35°29' E 139°40'0 0.0
2017-Mar-29 08:31N 35°29' E 139°40'0 0.0
2017-Mar-29 07:31N 35°29' E 139°40'0 0.0
2017-Mar-29 06:31N 35°29' E 139°40'0 0.0
2017-Mar-29 05:31N 35°29' E 139°40'0 0.0
2017-Mar-29 04:31N 35°29' E 139°40'2 1.9
2017-Mar-29 03:33N 35°27' E 139°41'2 1.5
2017-Mar-29 02:32N 35°26' E 139°42'0 0.0
2017-Mar-29 01:32N 35°26' E 139°42'0 0.0
2017-Mar-29 00:32N 35°26' E 139°42'0 0.0
2017-Mar-28 23:33N 35°26' E 139°42'9 9.2
2017-Mar-28 22:34N 35°17' E 139°45'  
Track history (hours):
 
Tides and Currents Weather Stations Pressure Air Temp Water Temp Dewpoint Dewpoint Depression Visibility Wind Speed Wind Dir Waves Ship Positions

Sumisemaru No.5

Last reported at 2017-Mar-29 17:34 UTC. Time now 2017-Apr-24 09:56 UTC.
Position N 35°13' E 139°46'.
Warning: this ship's position is 25 days out of date.

Length 96 m; draft 5.5 m.

Type: Cargo ship. MMSI: 431700423.

Date/timePositionNaut miles runAvg speedWind from/ knotsBaromVisibWave heightAir tempDewpointWater temp
2017-Mar-29 17:34N 35°13' E 139°46'1312.6
2017-Mar-29 16:34N 35°25' E 139°42'4 3.5
2017-Mar-29 15:31N 35°29' E 139°40'0 0.0
2017-Mar-29 14:31N 35°29' E 139°40'0 0.0
2017-Mar-29 13:31N 35°29' E 139°40'0 0.0
2017-Mar-29 12:31N 35°29' E 139°40'0 0.0
2017-Mar-29 11:31N 35°29' E 139°40'0 0.0
2017-Mar-29 10:31N 35°29' E 139°40'0 0.0
2017-Mar-29 09:28N 35°29' E 139°40'0 0.0
2017-Mar-29 08:31N 35°29' E 139°40'0 0.0
2017-Mar-29 07:31N 35°29' E 139°40'0 0.0
2017-Mar-29 06:31N 35°29' E 139°40'0 0.0
2017-Mar-29 05:31N 35°29' E 139°40'0 0.0
2017-Mar-29 04:31N 35°29' E 139°40'2 1.9
2017-Mar-29 03:33N 35°27' E 139°41'2 1.5
2017-Mar-29 02:32N 35°26' E 139°42'0 0.0
2017-Mar-29 01:32N 35°26' E 139°42'0 0.0
2017-Mar-29 00:32N 35°26' E 139°42'0 0.0
2017-Mar-28 23:33N 35°26' E 139°42'9 9.2
2017-Mar-28 22:34N 35°17' E 139°45'  

Dump ship's entire track history